Time;durP1;ratioP1;P1;durP2;ratioP2;P2;SDS_P1;SDS_P2;PMS_P1;PMS_P2;Temp;Humidity;BMP_temperature;BMP_pressure;BME280_temperature;BME280_humidity;BME280_pressure;Samples;Min_cycle;Max_cycle;Signal;HPM_P1;HPM_P2
2021/09/27 00:02:00;;;;;;;;;;;;;;;;;;5072317;28;20023;-79
2021/09/27 00:04:25;;;;;;;;;;;;;;;;;;5052688;28;20126;-80
2021/09/27 00:06:51;;;;;;;;;;;;;;;;;;5052293;28;19913;-79
2021/09/27 00:09:16;;;;;;;;;;;;;;;;;;5064149;28;19924;-79
2021/09/27 00:11:41;;;;;;;;;;;;;;;;;;5035020;28;19940;-79
2021/09/27 00:14:07;;;;;;;;;;;;;;;;;;5068844;28;19920;-79
2021/09/27 00:16:32;;;;;;;;;;;;;;;;;;5052636;28;19913;-79
2021/09/27 00:18:58;;;;;;;;;;;;;;;;;;5047182;28;19975;-79
2021/09/27 00:21:27;;;;;;;;;;;;;;;;;;5071696;28;19912;-79
2021/09/27 00:23:53;;;;;;;;;;;;;;;;;;5071644;28;19920;-79
2021/09/27 00:26:18;;;;;;;;;;;;;;;;;;5071357;28;20286;-79
2021/09/27 00:28:43;;;;;;;;;;;;;;;;;;5053025;28;19925;-79
2021/09/27 00:31:09;;;;;;;;;;;;;;;;;;5051682;28;19919;-80
2021/09/27 00:33:34;;;;;;;;;;;;;;;;;;5055469;28;20374;-79
2021/09/27 00:36:00;;;;;;;;;;;;;;;;;;5068375;28;20019;-79
2021/09/27 00:38:25;;;;;;;;;;;;;;;;;;5067700;28;20003;-79
2021/09/27 00:40:52;;;;;;;;;;;;;;;;;;5052833;28;20451;-79
2021/09/27 00:43:17;;;;;;;;;;;;;;;;;;5064767;28;20003;-79
2021/09/27 00:45:43;;;;;;;;;;;;;;;;;;5048483;28;20382;-79
2021/09/27 00:48:09;;;;;;;;;;;;;;;;;;5071674;28;19923;-79
2021/09/27 00:50:36;;;;;;;;;;;;;;;;;;5061141;28;20278;-79
2021/09/27 00:53:01;;;;;;;;;;;;;;;;;;5071134;28;20401;-79
2021/09/27 00:55:27;;;;;;;;;;;;;;;;;;5069498;28;20007;-79
2021/09/27 00:57:52;;;;;;;;;;;;;;;;;;5050931;28;19944;-79
2021/09/27 01:00:18;;;;;;;;;;;;;;;;;;5034603;28;20050;-79
2021/09/27 01:02:44;;;;;;;;;;;;;;;;;;5050993;28;19920;-79
2021/09/27 01:05:10;;;;;;;;;;;;;;;;;;5052331;28;19913;-79
2021/09/27 01:07:35;;;;;;;;;;;;;;;;;;5061241;28;19927;-79
2021/09/27 01:10:19;;;;;;;;;;;;;;;;;;5069744;28;19913;-79
2021/09/27 01:12:56;;;;;;;;;;;;;;;;;;5068541;28;19970;-79
2021/09/27 01:15:37;;;;;;;;;;;;;;;;;;5061987;28;19916;-80
2021/09/27 01:18:07;;;;;;;;;;;;;;;;;;5050779;28;19912;-79
2021/09/27 01:20:51;;;;;;;;;;;;;;;;;;5064398;28;20011;-78
2021/09/27 01:23:35;;;;;;;;;;;;;;;;;;5071844;28;19917;-79
2021/09/27 01:26:03;;;;;;;;;;;;;;;;;;5087565;28;19912;-79
2021/09/27 01:28:41;;;;;;;;;;;;;;;;;;5078974;28;19928;-79
2021/09/27 01:31:25;;;;;;;;;;;;;;;;;;5074918;28;19951;-79
2021/09/27 01:34:10;;;;;;;;;;;;;;;;;;5089132;28;19923;-79
2021/09/27 01:37:02;;;;;;;;;;;;;;;;;;5067354;28;19921;-79
2021/09/27 01:39:28;;;;;;;;;;;;;;;;;;5057201;28;19966;-79
2021/09/27 01:42:02;;;;;;;;;;;;;;;;;;5091623;28;19916;-79
2021/09/27 01:44:32;;;;;;;;;;;;;;;;;;5075624;28;20011;-79
2021/09/27 01:47:01;;;;;;;;;;;;;;;;;;5075029;28;20367;-79
2021/09/27 01:49:39;;;;;;;;;;;;;;;;;;5074676;28;19912;-79
2021/09/27 01:52:07;;;;;;;;;;;;;;;;;;5059681;28;20046;-79
2021/09/27 01:54:36;;;;;;;;;;;;;;;;;;5068931;28;19936;-79
2021/09/27 01:57:12;;;;;;;;;;;;;;;;;;5037632;28;19924;-79
2021/09/27 01:59:40;;;;;;;;;;;;;;;;;;5057396;28;19927;-79
2021/09/27 02:02:07;;;;;;;;;;;;;;;;;;5073628;28;19920;-79
2021/09/27 02:04:59;;;;;;;;;;;;;;;;;;5074522;28;19912;-79
2021/09/27 02:07:24;;;;;;;;;;;;;;;;;;5043990;28;19921;-79
2021/09/27 02:09:59;;;;;;;;;;;;;;;;;;5057511;28;20294;-79
2021/09/27 02:12:31;;;;;;;;;;;;;;;;;;5074097;28;20110;-79
2021/09/27 02:15:06;;;;;;;;;;;;;;;;;;5054406;28;20398;-79
2021/09/27 02:17:36;;;;;;;;;;;;;;;;;;5070888;28;19917;-79
2021/09/27 02:20:04;;;;;;;;;;;;;;;;;;5037944;28;19912;-80
2021/09/27 02:22:29;;;;;;;;;;;;;;;;;;5036902;28;19917;-79
2021/09/27 02:25:13;;;;;;;;;;;;;;;;;;5054771;28;19936;-79
2021/09/27 02:27:39;;;;;;;;;;;;;;;;;;5071044;28;19947;-79
2021/09/27 02:30:04;;;;;;;;;;;;;;;;;;5057435;28;20362;-79
2021/09/27 02:32:35;;;;;;;;;;;;;;;;;;5056996;28;19922;-79
2021/09/27 02:35:07;;;;;;;;;;;;;;;;;;5073481;28;20011;-78
2021/09/27 02:37:47;;;;;;;;;;;;;;;;;;5090177;28;19927;-79
2021/09/27 02:40:17;;;;;;;;;;;;;;;;;;5073504;28;19923;-79
2021/09/27 02:42:47;;;;;;;;;;;;;;;;;;5073430;28;20277;-79
2021/09/27 02:45:13;;;;;;;;;;;;;;;;;;5072862;28;19913;-79
2021/09/27 02:47:50;;;;;;;;;;;;;;;;;;5073215;28;20286;-79
2021/09/27 02:50:18;;;;;;;;;;;;;;;;;;5073206;28;19916;-79
2021/09/27 02:52:43;;;;;;;;;;;;;;;;;;5073574;28;19944;-79
2021/09/27 02:55:13;;;;;;;;;;;;;;;;;;5062918;28;19968;-79
2021/09/27 02:57:50;;;;;;;;;;;;;;;;;;5036318;28;19925;-79
2021/09/27 03:00:20;;;;;;;;;;;;;;;;;;5065681;28;19924;-79
2021/09/27 03:03:00;;;;;;;;;;;;;;;;;;5059468;28;19917;-79
2021/09/27 03:05:38;;;;;;;;;;;;;;;;;;5054732;28;20405;-79
2021/09/27 03:08:09;;;;;;;;;;;;;;;;;;5082367;28;20005;-79
2021/09/27 03:10:38;;;;;;;;;;;;;;;;;;5053073;28;19917;-79
2021/09/27 03:13:07;;;;;;;;;;;;;;;;;;5068015;28;19924;-79
2021/09/27 03:15:32;;;;;;;;;;;;;;;;;;5089710;28;19967;-80
2021/09/27 03:18:05;;;;;;;;;;;;;;;;;;5089809;28;20311;-79
2021/09/27 03:20:49;;;;;;;;;;;;;;;;;;5049457;28;20279;-79
2021/09/27 03:23:47;;;;;;;;;;;;;;;;;;5047257;28;19920;-79
2021/09/27 03:26:25;;;;;;;;;;;;;;;;;;5052238;28;20000;-79
2021/09/27 03:29:02;;;;;;;;;;;;;;;;;;5086071;28;19917;-79
2021/09/27 03:31:33;;;;;;;;;;;;;;;;;;5086643;28;19920;-79
2021/09/27 03:34:17;;;;;;;;;;;;;;;;;;5069489;28;20349;-79
2021/09/27 03:36:43;;;;;;;;;;;;;;;;;;5085177;28;19919;-79
2021/09/27 03:39:16;;;;;;;;;;;;;;;;;;5077735;28;20003;-79
2021/09/27 03:41:51;;;;;;;;;;;;;;;;;;5068774;28;19933;-80
2021/09/27 03:44:21;;;;;;;;;;;;;;;;;;5069207;28;19928;-79
2021/09/27 03:47:06;;;;;;;;;;;;;;;;;;5069397;28;19919;-79
2021/09/27 03:49:31;;;;;;;;;;;;;;;;;;5068887;28;20004;-79
2021/09/27 03:52:02;;;;;;;;;;;;;;;;;;5073928;28;20011;-80
2021/09/27 03:54:37;;;;;;;;;;;;;;;;;;5072292;28;19967;-79
2021/09/27 03:57:07;;;;;;;;;;;;;;;;;;5071681;28;19921;-79
2021/09/27 03:59:36;;;;;;;;;;;;;;;;;;5072175;28;19916;-79
2021/09/27 04:02:05;;;;;;;;;;;;;;;;;;5072490;28;19935;-79
2021/09/27 04:04:39;;;;;;;;;;;;;;;;;;5072192;28;19913;-79
2021/09/27 04:07:07;;;;;;;;;;;;;;;;;;5071259;28;19926;-79
2021/09/27 04:09:52;;;;;;;;;;;;;;;;;;5071240;28;19962;-79
2021/09/27 04:12:23;;;;;;;;;;;;;;;;;;5065774;28;19955;-79
2021/09/27 04:15:21;;;;;;;;;;;;;;;;;;5053774;28;19916;-79
2021/09/27 04:17:52;;;;;;;;;;;;;;;;;;5048522;28;19921;-79
2021/09/27 04:20:24;;;;;;;;;;;;;;;;;;5066030;28;19956;-79
2021/09/27 04:22:50;;;;;;;;;;;;;;;;;;5064068;28;20019;-79
2021/09/27 04:25:18;;;;;;;;;;;;;;;;;;5087767;28;20087;-79
2021/09/27 04:27:46;;;;;;;;;;;;;;;;;;5084967;28;20019;-79
2021/09/27 04:30:21;;;;;;;;;;;;;;;;;;5088448;28;19925;-79
2021/09/27 04:33:05;;;;;;;;;;;;;;;;;;5061368;28;19921;-79
2021/09/27 04:35:43;;;;;;;;;;;;;;;;;;5051450;28;19919;-79
2021/09/27 04:38:09;;;;;;;;;;;;;;;;;;5054180;28;19952;-79
2021/09/27 04:40:45;;;;;;;;;;;;;;;;;;5070431;28;20333;-79
2021/09/27 04:43:20;;;;;;;;;;;;;;;;;;5070253;28;20256;-79
2021/09/27 04:46:00;;;;;;;;;;;;;;;;;;5071132;28;19983;-79
2021/09/27 04:48:26;;;;;;;;;;;;;;;;;;5061400;28;19943;-79
2021/09/27 04:50:51;;;;;;;;;;;;;;;;;;5064600;28;20374;-79
2021/09/27 04:53:22;;;;;;;;;;;;;;;;;;5050105;28;19917;-79
2021/09/27 04:55:57;;;;;;;;;;;;;;;;;;5070243;28;19924;-79
2021/09/27 04:58:25;;;;;;;;;;;;;;;;;;5063290;28;20010;-79
2021/09/27 05:00:57;;;;;;;;;;;;;;;;;;5088108;28;19917;-79
2021/09/27 05:03:22;;;;;;;;;;;;;;;;;;5052879;28;20046;-79
2021/09/27 05:05:51;;;;;;;;;;;;;;;;;;5061358;28;20003;-79
2021/09/27 05:08:25;;;;;;;;;;;;;;;;;;5075852;28;20011;-79
2021/09/27 05:11:09;;;;;;;;;;;;;;;;;;5053288;28;20007;-80
2021/09/27 05:13:49;;;;;;;;;;;;;;;;;;5036639;28;19912;-79
2021/09/27 05:16:30;;;;;;;;;;;;;;;;;;5043218;28;19920;-79
2021/09/27 05:19:07;;;;;;;;;;;;;;;;;;5060242;28;19974;-79
2021/09/27 05:21:38;;;;;;;;;;;;;;;;;;5070988;28;19912;-79
2021/09/27 05:24:14;;;;;;;;;;;;;;;;;;5059082;28;19916;-79
2021/09/27 05:26:39;;;;;;;;;;;;;;;;;;5070629;28;19922;-78
2021/09/27 05:29:23;;;;;;;;;;;;;;;;;;5068690;28;20394;-78
2021/09/27 05:31:55;;;;;;;;;;;;;;;;;;5076060;28;19920;-78
2021/09/27 05:34:23;;;;;;;;;;;;;;;;;;5079681;28;20012;-78
2021/09/27 05:37:07;;;;;;;;;;;;;;;;;;5062169;28;19932;-78
2021/09/27 05:39:37;;;;;;;;;;;;;;;;;;5067591;28;19948;-78
2021/09/27 05:42:06;;;;;;;;;;;;;;;;;;5040831;28;19919;-78
2021/09/27 05:44:31;;;;;;;;;;;;;;;;;;5070268;28;19970;-78
2021/09/27 05:47:15;;;;;;;;;;;;;;;;;;5087711;28;19916;-79
2021/09/27 05:49:50;;;;;;;;;;;;;;;;;;5071614;28;19923;-79
2021/09/27 05:52:18;;;;;;;;;;;;;;;;;;5053998;28;20384;-78
2021/09/27 05:54:47;;;;;;;;;;;;;;;;;;5053878;28;20242;-78
2021/09/27 05:57:16;;;;;;;;;;;;;;;;;;5087924;28;19928;-78
2021/09/27 05:59:44;;;;;;;;;;;;;;;;;;5069933;28;20007;-79
2021/09/27 06:02:12;;;;;;;;;;;;;;;;;;5070832;28;19916;-78
2021/09/27 06:04:56;;;;;;;;;;;;;;;;;;5071773;28;19948;-78
2021/09/27 06:07:26;;;;;;;;;;;;;;;;;;5071376;28;19916;-77
2021/09/27 06:10:02;;;;;;;;;;;;;;;;;;5069822;28;19917;-79
2021/09/27 06:12:37;;;;;;;;;;;;;;;;;;5053746;28;19916;-78
2021/09/27 06:15:03;;;;;;;;;;;;;;;;;;5055764;28;19916;-78
2021/09/27 06:17:28;;;;;;;;;;;;;;;;;;5057868;28;20279;-78
2021/09/27 06:20:06;;;;;;;;;;;;;;;;;;5086247;28;20472;-78
2021/09/27 06:22:53;;;;;;;;;;;;;;;;;;5057395;28;20256;-77
2021/09/27 06:25:22;;;;;;;;;;;;;;;;;;5055617;28;19916;-78
2021/09/27 06:27:48;;;;;;;;;;;;;;;;;;5063774;28;19924;-78
2021/09/27 06:30:13;;;;;;;;;;;;;;;;;;5086868;28;20385;-78
2021/09/27 06:32:50;;;;;;;;;;;;;;;;;;5091115;28;19916;-77
2021/09/27 06:35:16;;;;;;;;;;;;;;;;;;5074932;28;19912;-78
2021/09/27 06:37:41;;;;;;;;;;;;;;;;;;5073593;28;19916;-77
2021/09/27 06:40:07;;;;;;;;;;;;;;;;;;5073473;28;20247;-78
2021/09/27 06:42:32;;;;;;;;;;;;;;;;;;5068770;28;20401;-78
2021/09/27 06:44:58;;;;;;;;;;;;;;;;;;5056007;28;19917;-78
2021/09/27 06:47:23;;;;;;;;;;;;;;;;;;5073346;28;19966;-77
2021/09/27 06:49:48;;;;;;;;;;;;;;;;;;5066000;28;20003;-77
2021/09/27 06:52:14;;;;;;;;;;;;;;;;;;5040206;28;19917;-78
2021/09/27 06:54:39;;;;;;;;;;;;;;;;;;5050016;28;19920;-77
2021/09/27 06:57:05;;;;;;;;;;;;;;;;;;5039714;28;19920;-78
2021/09/27 06:59:30;;;;;;;;;;;;;;;;;;5052274;28;19925;-77
2021/09/27 07:01:55;;;;;;;;;;;;;;;;;;5036743;28;19916;-77
2021/09/27 07:04:21;;;;;;;;;;;;;;;;;;5056470;28;20001;-77
2021/09/27 07:06:46;;;;;;;;;;;;;;;;;;5058512;28;19973;-77
2021/09/27 07:09:12;;;;;;;;;;;;;;;;;;5067818;28;19916;-77
2021/09/27 07:11:38;;;;;;;;;;;;;;;;;;5047853;28;20437;-78
2021/09/27 07:14:03;;;;;;;;;;;;;;;;;;5073136;28;20285;-77
2021/09/27 07:16:28;;;;;;;;;;;;;;;;;;5057219;28;19917;-77
2021/09/27 07:18:54;;;;;;;;;;;;;;;;;;5071195;28;19967;-77
2021/09/27 07:21:19;;;;;;;;;;;;;;;;;;5065761;28;19913;-77
2021/09/27 07:23:44;;;;;;;;;;;;;;;;;;5065354;28;20329;-77
2021/09/27 07:26:12;;;;;;;;;;;;;;;;;;5035698;28;19916;-77
2021/09/27 07:28:38;;;;;;;;;;;;;;;;;;5038944;28;19955;-77
2021/09/27 07:31:03;;;;;;;;;;;;;;;;;;5068252;28;19952;-77
2021/09/27 07:33:29;;;;;;;;;;;;;;;;;;5065995;28;19917;-77
2021/09/27 07:35:55;;;;;;;;;;;;;;;;;;5056063;28;19939;-77
2021/09/27 07:38:21;;;;;;;;;;;;;;;;;;5068183;28;20012;-78
2021/09/27 07:40:46;;;;;;;;;;;;;;;;;;5071981;28;20007;-77
2021/09/27 07:43:12;;;;;;;;;;;;;;;;;;5067920;28;19912;-77
2021/09/27 07:46:13;;;;;;;;;;;;;;;;;;5063857;28;19917;-77
2021/09/27 07:48:38;;;;;;;;;;;;;;;;;;5063686;28;20279;-77
2021/09/27 07:51:03;;;;;;;;;;;;;;;;;;5044242;28;20015;-77
2021/09/27 07:53:29;;;;;;;;;;;;;;;;;;5071780;28;19913;-77
2021/09/27 07:55:54;;;;;;;;;;;;;;;;;;5040801;28;19920;-77
2021/09/27 07:58:19;;;;;;;;;;;;;;;;;;5054589;28;19916;-77
2021/09/27 08:00:45;;;;;;;;;;;;;;;;;;5072249;28;20385;-77
2021/09/27 08:03:11;;;;;;;;;;;;;;;;;;5088985;28;19952;-77
2021/09/27 08:05:38;;;;;;;;;;;;;;;;;;5055478;28;20319;-77
2021/09/27 08:08:03;;;;;;;;;;;;;;;;;;5055489;28;19919;-77
2021/09/27 08:10:29;;;;;;;;;;;;;;;;;;5050181;28;19917;-77
2021/09/27 08:12:54;;;;;;;;;;;;;;;;;;5039909;28;20386;-77
2021/09/27 08:15:21;;;;;;;;;;;;;;;;;;5072067;28;19920;-77
2021/09/27 08:17:48;;;;;;;;;;;;;;;;;;5072084;28;19928;-77
2021/09/27 08:20:14;;;;;;;;;;;;;;;;;;5058911;28;19913;-77
2021/09/27 08:22:39;;;;;;;;;;;;;;;;;;5044292;28;19917;-78
2021/09/27 08:25:05;;;;;;;;;;;;;;;;;;5062852;28;19917;-77
2021/09/27 08:27:30;;;;;;;;;;;;;;;;;;5070553;28;19946;-76
2021/09/27 08:29:56;;;;;;;;;;;;;;;;;;5074028;28;19970;-77
2021/09/27 08:32:21;;;;;;;;;;;;;;;;;;5059040;28;19942;-77
2021/09/27 08:34:49;;;;;;;;;;;;;;;;;;5051729;28;19963;-77
2021/09/27 08:37:15;;;;;;;;;;;;;;;;;;5053946;28;19924;-77
2021/09/27 08:39:41;;;;;;;;;;;;;;;;;;5051034;28;19920;-77
2021/09/27 08:42:11;;;;;;;;;;;;;;;;;;5054841;28;19970;-77
2021/09/27 08:44:41;;;;;;;;;;;;;;;;;;5054174;28;20465;-77
2021/09/27 08:47:37;;;;;;;;;;;;;;;;;;5054821;28;19920;-77
2021/09/27 08:50:02;;;;;;;;;;;;;;;;;;5060426;28;19921;-77
2021/09/27 08:52:30;;;;;;;;;;;;;;;;;;5065025;28;19939;-77
2021/09/27 08:54:55;;;;;;;;;;;;;;;;;;5059607;28;19924;-77
2021/09/27 08:57:21;;;;;;;;;;;;;;;;;;5071081;28;19916;-77
2021/09/27 08:59:59;;;;;;;;;;;;;;;;;;5072554;28;19912;-77
2021/09/27 09:02:28;;;;;;;;;;;;;;;;;;5054316;28;20334;-77
2021/09/27 09:05:05;;;;;;;;;;;;;;;;;;5053231;28;19920;-77
2021/09/27 09:07:30;;;;;;;;;;;;;;;;;;5068727;28;19931;-77
2021/09/27 09:09:57;;;;;;;;;;;;;;;;;;5037964;28;19920;-77
2021/09/27 09:12:29;;;;;;;;;;;;;;;;;;5065139;28;20423;-77
2021/09/27 09:15:01;;;;;;;;;;;;;;;;;;5071110;28;19916;-77
2021/09/27 09:17:30;;;;;;;;;;;;;;;;;;5052400;28;19968;-77
2021/09/27 09:19:56;;;;;;;;;;;;;;;;;;5068198;28;19959;-77
2021/09/27 09:22:26;;;;;;;;;;;;;;;;;;5058330;28;19944;-77
2021/09/27 09:24:51;;;;;;;;;;;;;;;;;;5054027;28;19917;-77
2021/09/27 09:27:16;;;;;;;;;;;;;;;;;;5070690;28;19920;-77
2021/09/27 09:29:43;;;;;;;;;;;;;;;;;;5053595;28;19945;-77
2021/09/27 09:32:18;;;;;;;;;;;;;;;;;;5071121;28;19930;-77
2021/09/27 09:34:44;;;;;;;;;;;;;;;;;;5059449;28;19920;-77
2021/09/27 09:37:21;;;;;;;;;;;;;;;;;;5050330;28;19909;-77
2021/09/27 09:39:54;;;;;;;;;;;;;;;;;;5040888;28;19916;-77
2021/09/27 09:42:20;;;;;;;;;;;;;;;;;;5052241;28;19962;-77
2021/09/27 09:44:46;;;;;;;;;;;;;;;;;;5065957;28;19916;-77
2021/09/27 09:47:12;;;;;;;;;;;;;;;;;;5054225;28;19921;-77
2021/09/27 09:49:50;;;;;;;;;;;;;;;;;;5053755;28;19912;-77
2021/09/27 09:52:26;;;;;;;;;;;;;;;;;;5072014;28;20307;-78
2021/09/27 09:54:53;;;;;;;;;;;;;;;;;;5072412;28;19973;-78
2021/09/27 09:57:24;;;;;;;;;;;;;;;;;;5065673;28;20016;-77
2021/09/27 10:00:13;;;;;;;;;;;;;;;;;;5038022;28;19912;-77
2021/09/27 10:02:39;;;;;;;;;;;;;;;;;;5055687;28;19914;-77
2021/09/27 10:05:09;;;;;;;;;;;;;;;;;;5037445;28;19971;-77
2021/09/27 10:07:42;;;;;;;;;;;;;;;;;;5037438;28;19920;-78
2021/09/27 10:10:09;;;;;;;;;;;;;;;;;;5066551;28;20438;-77
2021/09/27 10:12:43;;;;;;;;;;;;;;;;;;5054418;28;19978;-76
2021/09/27 10:15:29;;;;;;;;;;;;;;;;;;5070912;28;19950;-77
2021/09/27 10:18:06;;;;;;;;;;;;;;;;;;5053558;28;19920;-77
2021/09/27 10:20:33;;;;;;;;;;;;;;;;;;5054191;28;19920;-79
2021/09/27 10:22:59;;;;;;;;;;;;;;;;;;5037721;28;19916;-78
2021/09/27 10:25:29;;;;;;;;;;;;;;;;;;5053536;28;19923;-77
2021/09/27 10:27:54;;;;;;;;;;;;;;;;;;5054147;28;19963;-77
2021/09/27 10:30:23;;;;;;;;;;;;;;;;;;5053630;28;19913;-79
2021/09/27 10:32:54;;;;;;;;;;;;;;;;;;5087309;28;19916;-80
2021/09/27 10:35:19;;;;;;;;;;;;;;;;;;5073372;28;19916;-80
2021/09/27 10:37:44;;;;;;;;;;;;;;;;;;5055443;28;20561;-81
2021/09/27 10:40:10;;;;;;;;;;;;;;;;;;5073050;28;19920;-82
2021/09/27 10:42:40;;;;;;;;;;;;;;;;;;5073069;28;19912;-80
2021/09/27 10:45:05;;;;;;;;;;;;;;;;;;5063862;28;20371;-81
2021/09/27 10:47:32;;;;;;;;;;;;;;;;;;5056836;28;19916;-80
2021/09/27 10:50:00;;;;;;;;;;;;;;;;;;5072701;28;19920;-82
2021/09/27 10:52:37;;;;;;;;;;;;;;;;;;5082722;28;19921;-79
2021/09/27 10:55:08;;;;;;;;;;;;;;;;;;5070039;28;19920;-78
2021/09/27 10:57:41;;;;;;;;;;;;;;;;;;5071896;28;19920;-79
2021/09/27 11:00:15;;;;;;;;;;;;;;;;;;5055919;28;19913;-78
2021/09/27 11:02:44;;;;;;;;;;;;;;;;;;5018231;28;19916;-79
2021/09/27 11:05:12;;;;;;;;;;;;;;;;;;5050702;28;19963;-79
2021/09/27 11:07:47;;;;;;;;;;;;;;;;;;5069889;28;19919;-79
2021/09/27 11:10:14;;;;;;;;;;;;;;;;;;5072510;28;19916;-79
2021/09/27 11:12:43;;;;;;;;;;;;;;;;;;5057461;28;19919;-80
2021/09/27 11:15:27;;;;;;;;;;;;;;;;;;5052688;28;19924;-79
2021/09/27 11:18:09;;;;;;;;;;;;;;;;;;5053886;28;19913;-79
2021/09/27 11:20:39;;;;;;;;;;;;;;;;;;5083328;28;19924;-78
2021/09/27 11:23:18;;;;;;;;;;;;;;;;;;5065375;28;19913;-78
2021/09/27 11:25:45;;;;;;;;;;;;;;;;;;5071303;28;19988;-79
2021/09/27 11:28:12;;;;;;;;;;;;;;;;;;5072842;28;19917;-79
2021/09/27 11:30:38;;;;;;;;;;;;;;;;;;5072861;28;19917;-78
2021/09/27 11:33:14;;;;;;;;;;;;;;;;;;5073690;28;20378;-79
2021/09/27 11:35:43;;;;;;;;;;;;;;;;;;5072734;28;20381;-79
2021/09/27 11:38:28;;;;;;;;;;;;;;;;;;5055826;28;20389;-79
2021/09/27 11:41:03;;;;;;;;;;;;;;;;;;5066577;28;19914;-79
2021/09/27 11:43:35;;;;;;;;;;;;;;;;;;5070472;28;20378;-78
2021/09/27 11:46:06;;;;;;;;;;;;;;;;;;5054483;28;19917;-79
2021/09/27 11:48:39;;;;;;;;;;;;;;;;;;5088592;28;19973;-78
2021/09/27 11:51:05;;;;;;;;;;;;;;;;;;5070604;28;19920;-79
2021/09/27 11:53:36;;;;;;;;;;;;;;;;;;5071804;28;19913;-78
2021/09/27 11:56:15;;;;;;;;;;;;;;;;;;5070643;28;19928;-78
2021/09/27 11:58:40;;;;;;;;;;;;;;;;;;5035944;28;19917;-78
2021/09/27 12:01:09;;;;;;;;;;;;;;;;;;5035254;28;19913;-77
2021/09/27 12:03:48;;;;;;;;;;;;;;;;;;5055421;28;19913;-78
2021/09/27 12:06:16;;;;;;;;;;;;;;;;;;5055324;28;19912;-78
2021/09/27 12:08:56;;;;;;;;;;;;;;;;;;5071612;28;19917;-78
2021/09/27 12:11:21;;;;;;;;;;;;;;;;;;5038344;28;19912;-78
2021/09/27 12:13:48;;;;;;;;;;;;;;;;;;5055586;28;19919;-78
2021/09/27 12:16:19;;;;;;;;;;;;;;;;;;5071283;28;19924;-78
2021/09/27 12:18:54;;;;;;;;;;;;;;;;;;5070992;28;19913;-79
2021/09/27 12:21:20;;;;;;;;;;;;;;;;;;5065102;28;19916;-79
2021/09/27 12:23:47;;;;;;;;;;;;;;;;;;5065942;28;19927;-78
2021/09/27 12:26:17;;;;;;;;;;;;;;;;;;5071333;28;19966;-78
2021/09/27 12:28:42;;;;;;;;;;;;;;;;;;5071546;28;19927;-78
2021/09/27 12:31:07;;;;;;;;;;;;;;;;;;5071675;28;19912;-78
2021/09/27 12:33:32;;;;;;;;;;;;;;;;;;5051607;28;19923;-79
2021/09/27 12:36:01;;;;;;;;;;;;;;;;;;5050097;28;19924;-78
2021/09/27 12:38:26;;;;;;;;;;;;;;;;;;5072223;28;19920;-79
2021/09/27 12:40:52;;;;;;;;;;;;;;;;;;5070997;28;19912;-79
2021/09/27 12:43:18;;;;;;;;;;;;;;;;;;5055466;28;19912;-79
2021/09/27 12:45:48;;;;;;;;;;;;;;;;;;5067347;28;19913;-78
2021/09/27 12:48:23;;;;;;;;;;;;;;;;;;5034618;28;20030;-78
2021/09/27 12:50:53;;;;;;;;;;;;;;;;;;5054499;28;19982;-79
2021/09/27 12:53:19;;;;;;;;;;;;;;;;;;5069669;28;19985;-79
2021/09/27 12:55:45;;;;;;;;;;;;;;;;;;5083227;28;19917;-79
2021/09/27 12:58:25;;;;;;;;;;;;;;;;;;5054073;28;19916;-78
2021/09/27 13:00:50;;;;;;;;;;;;;;;;;;5051064;28;20409;-79
2021/09/27 13:03:18;;;;;;;;;;;;;;;;;;5055419;28;19917;-79
2021/09/27 13:05:48;;;;;;;;;;;;;;;;;;5050230;28;19919;-79
2021/09/27 13:08:27;;;;;;;;;;;;;;;;;;5052087;28;19966;-79
2021/09/27 13:10:54;;;;;;;;;;;;;;;;;;5052432;28;19983;-79
2021/09/27 13:13:28;;;;;;;;;;;;;;;;;;5051910;28;19966;-79
2021/09/27 13:15:56;;;;;;;;;;;;;;;;;;5070792;28;20433;-79
2021/09/27 13:18:42;;;;;;;;;;;;;;;;;;5071977;28;19916;-78
2021/09/27 13:21:14;;;;;;;;;;;;;;;;;;5049893;28;20389;-79
2021/09/27 13:23:40;;;;;;;;;;;;;;;;;;5066850;28;19917;-79
2021/09/27 13:26:09;;;;;;;;;;;;;;;;;;5073120;28;19921;-79
2021/09/27 13:28:38;;;;;;;;;;;;;;;;;;5033338;28;20403;-78
2021/09/27 13:31:11;;;;;;;;;;;;;;;;;;5065699;28;19917;-79
2021/09/27 13:33:39;;;;;;;;;;;;;;;;;;5047689;28;19917;-79
2021/09/27 13:36:06;;;;;;;;;;;;;;;;;;5051953;28;19924;-79
2021/09/27 13:38:31;;;;;;;;;;;;;;;;;;5049011;28;19920;-79
2021/09/27 13:41:02;;;;;;;;;;;;;;;;;;5064549;28;19973;-79
2021/09/27 13:43:34;;;;;;;;;;;;;;;;;;5087103;28;19912;-79
2021/09/27 13:46:03;;;;;;;;;;;;;;;;;;5064634;28;19956;-78
2021/09/27 13:48:29;;;;;;;;;;;;;;;;;;5041076;28;19923;-80
2021/09/27 13:50:54;;;;;;;;;;;;;;;;;;5060621;28;19912;-80
2021/09/27 13:53:30;;;;;;;;;;;;;;;;;;5052996;28;19917;-79
2021/09/27 13:55:56;;;;;;;;;;;;;;;;;;5053695;28;19920;-79
2021/09/27 13:58:22;;;;;;;;;;;;;;;;;;5070115;28;19921;-79
2021/09/27 14:00:47;;;;;;;;;;;;;;;;;;5037157;28;19913;-79
2021/09/27 14:03:12;;;;;;;;;;;;;;;;;;5033145;28;19924;-79
2021/09/27 14:05:38;;;;;;;;;;;;;;;;;;5064182;28;19959;-79
2021/09/27 14:08:04;;;;;;;;;;;;;;;;;;5036950;28;19993;-79
2021/09/27 14:10:29;;;;;;;;;;;;;;;;;;5047537;28;19979;-79
2021/09/27 14:12:55;;;;;;;;;;;;;;;;;;5049867;28;19924;-79
2021/09/27 14:15:20;;;;;;;;;;;;;;;;;;5069429;28;19912;-78
2021/09/27 14:17:46;;;;;;;;;;;;;;;;;;5069740;28;19917;-79
2021/09/27 14:20:11;;;;;;;;;;;;;;;;;;5053322;28;19940;-79
2021/09/27 14:22:37;;;;;;;;;;;;;;;;;;5070147;28;20374;-78
2021/09/27 14:25:02;;;;;;;;;;;;;;;;;;5069430;28;19916;-79
2021/09/27 14:27:28;;;;;;;;;;;;;;;;;;5069687;28;20357;-79
2021/09/27 14:29:53;;;;;;;;;;;;;;;;;;5048919;28;19912;-80
2021/09/27 14:32:19;;;;;;;;;;;;;;;;;;5046596;28;19939;-79
2021/09/27 14:34:44;;;;;;;;;;;;;;;;;;5053094;28;20275;-79
2021/09/27 14:37:09;;;;;;;;;;;;;;;;;;5067847;28;19913;-80
2021/09/27 14:39:35;;;;;;;;;;;;;;;;;;5066183;28;19927;-79
2021/09/27 14:42:01;;;;;;;;;;;;;;;;;;5036989;28;19916;-80
2021/09/27 14:44:26;;;;;;;;;;;;;;;;;;5071431;28;19917;-81
2021/09/27 14:46:51;;;;;;;;;;;;;;;;;;5073484;28;20329;-80
2021/09/27 14:49:16;;;;;;;;;;;;;;;;;;5066813;28;19932;-81
2021/09/27 14:51:42;;;;;;;;;;;;;;;;;;5056737;28;19926;-82
2021/09/27 14:54:07;;;;;;;;;;;;;;;;;;5054257;28;19962;-84
2021/09/27 14:56:33;;;;;;;;;;;;;;;;;;5036620;28;19962;-83
2021/09/27 14:58:58;;;;;;;;;;;;;;;;;;5045948;28;20297;-83
2021/09/27 15:01:24;;;;;;;;;;;;;;;;;;5073598;28;19923;-81
2021/09/27 15:03:49;;;;;;;;;;;;;;;;;;5067455;28;20282;-81
2021/09/27 15:06:22;;;;;;;;;;;;;;;;;;5073182;28;20447;-81
2021/09/27 15:08:48;;;;;;;;;;;;;;;;;;5072756;28;19924;-80
2021/09/27 15:11:14;;;;;;;;;;;;;;;;;;5063148;28;19923;-81
2021/09/27 15:13:39;;;;;;;;;;;;;;;;;;5052757;28;19924;-80
2021/09/27 15:16:05;;;;;;;;;;;;;;;;;;5072452;28;19921;-81
2021/09/27 15:18:30;;;;;;;;;;;;;;;;;;5056459;28;19916;-80
2021/09/27 15:20:56;;;;;;;;;;;;;;;;;;5056330;28;19920;-81
2021/09/27 15:23:21;;;;;;;;;;;;;;;;;;5039717;28;20317;-82
2021/09/27 15:25:46;;;;;;;;;;;;;;;;;;5072257;28;19928;-81
2021/09/27 15:28:12;;;;;;;;;;;;;;;;;;5069903;28;19942;-81
2021/09/27 15:30:38;;;;;;;;;;;;;;;;;;5055960;28;19920;-81
2021/09/27 15:33:05;;;;;;;;;;;;;;;;;;5036244;28;19996;-80
2021/09/27 15:35:30;;;;;;;;;;;;;;;;;;5036686;28;19947;-81
2021/09/27 15:37:55;;;;;;;;;;;;;;;;;;5035628;28;20009;-81
2021/09/27 15:40:21;;;;;;;;;;;;;;;;;;5053994;28;19931;-82
2021/09/27 15:42:46;;;;;;;;;;;;;;;;;;5070084;28;19916;-81
2021/09/27 15:45:12;;;;;;;;;;;;;;;;;;5050955;28;19967;-80
2021/09/27 15:47:37;;;;;;;;;;;;;;;;;;5036825;28;20418;-81
2021/09/27 15:50:03;;;;;;;;;;;;;;;;;;5061625;28;19923;-82
2021/09/27 15:52:28;;;;;;;;;;;;;;;;;;5050562;28;19978;-80
2021/09/27 15:54:54;;;;;;;;;;;;;;;;;;5071925;28;19916;-80
2021/09/27 15:57:19;;;;;;;;;;;;;;;;;;5072202;28;19939;-80
2021/09/27 15:59:44;;;;;;;;;;;;;;;;;;5071376;28;20289;-80
2021/09/27 16:02:09;;;;;;;;;;;;;;;;;;5072111;28;19912;-81
2021/09/27 16:04:35;;;;;;;;;;;;;;;;;;5038532;28;19917;-81
2021/09/27 16:07:04;;;;;;;;;;;;;;;;;;5055201;28;20459;-80
2021/09/27 16:09:30;;;;;;;;;;;;;;;;;;5034520;28;20012;-82
2021/09/27 16:11:55;;;;;;;;;;;;;;;;;;5033655;28;19920;-82
2021/09/27 16:14:21;;;;;;;;;;;;;;;;;;5050038;28;19999;-82
2021/09/27 16:16:46;;;;;;;;;;;;;;;;;;5037487;28;19923;-82
2021/09/27 16:19:12;;;;;;;;;;;;;;;;;;5053577;28;19921;-82
2021/09/27 16:21:38;;;;;;;;;;;;;;;;;;5036348;28;19986;-82
2021/09/27 16:24:04;;;;;;;;;;;;;;;;;;5034624;28;20624;-82
2021/09/27 16:26:29;;;;;;;;;;;;;;;;;;5051325;28;19928;-82
2021/09/27 16:28:55;;;;;;;;;;;;;;;;;;5042214;28;19970;-83
2021/09/27 16:31:30;;;;;;;;;;;;;;;;;;5071491;28;20346;-81
2021/09/27 16:33:56;;;;;;;;;;;;;;;;;;5071016;28;19917;-81
2021/09/27 16:36:22;;;;;;;;;;;;;;;;;;5041911;28;20019;-82
2021/09/27 16:38:47;;;;;;;;;;;;;;;;;;5054612;28;20369;-82
2021/09/27 16:41:13;;;;;;;;;;;;;;;;;;5070405;28;19920;-81
2021/09/27 16:43:39;;;;;;;;;;;;;;;;;;5062544;28;19917;-82
2021/09/27 16:46:04;;;;;;;;;;;;;;;;;;5071892;28;20386;-83
2021/09/27 16:48:31;;;;;;;;;;;;;;;;;;5071483;28;19913;-84
2021/09/27 16:50:56;;;;;;;;;;;;;;;;;;5049091;28;19917;-81
2021/09/27 16:53:21;;;;;;;;;;;;;;;;;;5041469;28;19928;-81
2021/09/27 16:55:51;;;;;;;;;;;;;;;;;;5050423;28;19921;-82
2021/09/27 16:58:16;;;;;;;;;;;;;;;;;;5051408;28;19917;-81
2021/09/27 17:00:42;;;;;;;;;;;;;;;;;;5051501;28;19924;-81
2021/09/27 17:03:07;;;;;;;;;;;;;;;;;;5051168;28;19920;-81